Time;durP1;ratioP1;P1;durP2;ratioP2;P2;SDS_P1;SDS_P2;PMS_P1;PMS_P2;Temp;Humidity;BMP_temperature;BMP_pressure;BME280_temperature;BME280_humidity;BME280_pressure;Samples;Min_cycle;Max_cycle;Signal;HPM_P1;HPM_P2
2021/11/12 00:14:25;;;;;;;99.60;35.03;;;;;;;4.53;100.00;98578.19;4935033;29;20493;-77
2021/11/12 00:16:53;;;;;;;98.60;34.45;;;;;;;4.57;100.00;98581.25;4934964;29;20031;-78
2021/11/12 00:19:18;;;;;;;94.65;35.47;;;;;;;4.70;100.00;98570.91;4917920;29;20035;-76
2021/11/12 00:21:44;;;;;;;89.57;32.05;;;;;;;4.67;100.00;98571.41;4924523;29;20046;-76
2021/11/12 00:24:10;;;;;;;89.60;34.15;;;;;;;4.69;100.00;98576.59;4937643;29;20107;-77
2021/11/12 00:26:36;;;;;;;92.28;33.55;;;;;;;4.51;100.00;98576.78;4937402;29;20485;-77
2021/11/12 00:29:02;;;;;;;93.78;35.60;;;;;;;4.40;100.00;98575.75;4936029;29;20035;-76
2021/11/12 00:39:28;;;;;;;87.80;34.85;;;;;;;4.55;100.00;98572.53;4963430;28;20118;-79
2021/11/12 00:45:01;;;;;;;86.82;33.83;;;;;;;4.47;100.00;98567.50;4968506;28;20548;-80
2021/11/12 00:55:14;;;;;;;88.57;31.90;;;;;;;4.63;100.00;98559.44;4958241;28;20043;-79
2021/11/12 00:57:39;;;;;;;85.97;32.40;;;;;;;4.60;100.00;98562.63;4953334;28;20031;-79
2021/11/12 01:00:07;;;;;;;81.60;30.88;;;;;;;4.60;100.00;98550.97;4951930;29;20063;-81
2021/11/12 01:02:34;;;;;;;77.90;31.77;;;;;;;4.67;100.00;98554.31;4964886;28;20031;-79
2021/11/12 01:05:00;;;;;;;71.75;29.55;;;;;;;4.82;100.00;98550.00;4967852;29;20028;-79
2021/11/12 01:07:27;;;;;;;76.28;32.58;;;;;;;4.83;100.00;98548.94;4972033;28;20078;-81
2021/11/12 01:09:53;;;;;;;75.22;29.38;;;;;;;4.94;100.00;98551.84;4977753;28;20046;-81
2021/11/12 01:12:18;;;;;;;81.82;32.75;;;;;;;4.93;100.00;98547.50;4976814;28;20039;-82
2021/11/12 01:14:44;;;;;;;78.35;31.52;;;;;;;4.95;100.00;98540.75;4964194;29;20046;-80
2021/11/12 01:17:10;;;;;;;77.20;30.75;;;;;;;4.89;100.00;98540.94;4944339;29;20030;-80
2021/11/12 01:19:37;;;;;;;76.90;30.80;;;;;;;4.89;100.00;98541.72;4947047;29;20035;-79
2021/11/12 01:22:03;;;;;;;71.22;29.95;;;;;;;4.96;100.00;98547.81;4944273;29;20106;-78
2021/11/12 01:24:29;;;;;;;80.72;31.38;;;;;;;4.88;100.00;98540.09;4939487;29;20074;-78
2021/11/12 01:26:54;;;;;;;81.55;31.60;;;;;;;4.83;100.00;98543.53;4943944;29;20055;-79
2021/11/12 01:29:19;;;;;;;86.20;33.45;;;;;;;4.79;100.00;98542.38;4928001;29;20473;-79
2021/11/12 01:31:45;;;;;;;83.93;33.45;;;;;;;4.87;100.00;98535.75;4942585;29;20118;-77
2021/11/12 01:34:11;;;;;;;86.55;32.65;;;;;;;4.86;100.00;98526.78;4941950;29;20090;-80
2021/11/12 01:36:40;;;;;;;90.40;32.50;;;;;;;4.80;100.00;98527.75;4926279;29;20126;-79
2021/11/12 01:39:09;;;;;;;87.78;31.45;;;;;;;4.74;100.00;98531.44;4926004;29;20028;-81
2021/11/12 01:41:38;;;;;;;83.90;32.60;;;;;;;4.75;100.00;98519.56;4942685;29;20119;-80
2021/11/12 01:44:07;;;;;;;82.53;32.25;;;;;;;4.75;100.00;98521.44;4927594;29;20064;-79
2021/11/12 01:49:16;;;;;;;88.57;32.83;;;;;;;4.84;100.00;98517.25;4942122;29;20043;-79
2021/11/12 01:57:23;;;;;;;86.68;32.33;;;;;;;4.92;100.00;98511.44;4964635;29;20074;-79
2021/11/12 01:59:51;;;;;;;80.72;32.22;;;;;;;4.80;100.00;98503.38;4973423;29;20092;-80
2021/11/12 02:02:17;;;;;;;81.80;31.08;;;;;;;4.91;100.00;98506.25;4971459;29;20059;-77
2021/11/12 02:04:43;;;;;;;79.50;31.65;;;;;;;4.95;100.00;98505.50;4975134;29;20059;-80
2021/11/12 02:07:09;;;;;;;86.90;32.47;;;;;;;4.92;100.00;98505.22;4970648;29;20027;-80
2021/11/12 02:09:36;;;;;;;79.68;31.55;;;;;;;4.92;100.00;98503.28;4964840;29;20038;-80
2021/11/12 02:12:10;;;;;;;82.90;31.67;;;;;;;4.91;100.00;98493.53;4963100;29;20058;-80
2021/11/12 02:14:38;;;;;;;81.90;33.30;;;;;;;4.84;100.00;98491.00;4965086;29;20038;-80
2021/11/12 02:17:13;;;;;;;85.10;31.30;;;;;;;4.88;100.00;98495.91;4961364;29;20028;-79
2021/11/12 02:19:47;;;;;;;;;;;;;;;4.78;100.00;98500.09;4958720;29;20031;-79
2021/11/12 02:22:14;;;;;;;81.72;29.17;;;;;;;4.83;100.00;98497.47;4958753;29;19922;-79
2021/11/12 02:24:44;;;;;;;74.78;30.17;;;;;;;4.78;100.00;98488.44;4957441;28;20046;-78
2021/11/12 02:27:14;;;;;;;76.95;29.83;;;;;;;4.84;100.00;98492.88;4955973;29;20023;-80
2021/11/12 02:29:47;;;;;;;81.70;30.42;;;;;;;4.83;100.00;98481.19;4956167;29;20467;-79
2021/11/12 02:32:15;;;;;;;83.20;30.98;;;;;;;4.74;100.00;98474.56;4957597;29;20023;-80
2021/11/12 02:34:41;;;;;;;79.97;30.65;;;;;;;4.77;100.00;98473.22;4955345;29;20122;-78
2021/11/12 02:37:06;;;;;;;86.43;32.88;;;;;;;4.66;100.00;98468.72;4938350;29;20117;-78
2021/11/12 02:39:32;;;;;;;80.70;30.45;;;;;;;4.66;100.00;98466.00;4937079;29;20118;-77
2021/11/12 02:41:57;;;;;;;76.30;29.95;;;;;;;4.67;100.00;98463.03;4937245;29;20039;-77
2021/11/12 02:44:24;;;;;;;89.63;28.98;;;;;;;4.61;100.00;98458.59;4937063;28;20027;-76
2021/11/12 02:46:50;;;;;;;81.25;31.85;;;;;;;4.67;100.00;98456.78;4953547;29;20461;-77
2021/11/12 02:49:15;;;;;;;90.63;30.48;;;;;;;4.56;100.00;98450.41;4954100;29;20094;-77
2021/11/12 02:51:41;;;;;;;87.65;30.50;;;;;;;4.63;100.00;98456.50;4954726;29;20045;-78
2021/11/12 02:54:09;;;;;;;82.82;31.52;;;;;;;4.63;100.00;98451.06;4953889;29;20090;-76
2021/11/12 02:56:34;;;;;;;88.43;29.83;;;;;;;4.70;100.00;98457.13;4953789;29;20086;-78
2021/11/12 02:59:10;;;;;;;93.40;31.75;;;;;;;4.76;100.00;98463.47;4953836;29;20055;-78
2021/11/12 03:01:40;;;;;;;;;;;;;;;4.79;100.00;98463.78;4954801;29;20027;-78
2021/11/12 03:04:06;;;;;;;87.35;30.42;;;;;;;4.71;100.00;98468.78;4954001;29;19918;-78
2021/11/12 03:06:32;;;;;;;85.50;30.83;;;;;;;4.64;100.00;98462.72;4953807;29;20116;-78
2021/11/12 03:09:00;;;;;;;96.93;32.00;;;;;;;4.64;100.00;98476.25;4953766;29;20020;-77
2021/11/12 03:11:26;;;;;;;83.93;30.55;;;;;;;4.64;100.00;98479.78;4936686;29;20027;-78
2021/11/12 03:13:52;;;;;;;86.00;30.42;;;;;;;4.62;100.00;98481.94;4952758;29;20046;-76
2021/11/12 03:16:19;;;;;;;89.82;29.77;;;;;;;4.56;100.00;98482.06;4953539;29;20050;-77
2021/11/12 03:18:45;;;;;;;85.85;29.52;;;;;;;4.69;100.00;98476.34;4955553;29;20499;-78
2021/11/12 03:21:14;;;;;;;81.38;28.73;;;;;;;4.67;100.00;98484.72;4954970;29;20047;-79
2021/11/12 03:23:57;;;;;;;82.43;31.10;;;;;;;4.67;100.00;98487.44;4955089;29;20042;-80
2021/11/12 05:44:15;;;;;;;37.72;16.80;;;;;;;4.46;100.00;98546.88;4962025;29;20046;-80
2021/11/12 05:52:14;;;;;;;44.28;18.65;;;;;;;4.51;100.00;98549.72;4976766;28;20018;-80
2021/11/12 05:57:24;;;;;;;51.75;17.95;;;;;;;4.55;100.00;98548.13;4963539;29;20069;-78
2021/11/12 05:59:50;;;;;;;40.95;18.42;;;;;;;4.52;100.00;98545.91;4965221;29;20392;-79
2021/11/12 06:02:16;;;;;;;39.65;17.08;;;;;;;4.54;100.00;98555.44;4958265;29;20031;-78
2021/11/12 06:04:42;;;;;;;48.70;17.73;;;;;;;4.60;100.00;98553.69;4955587;28;20019;-78
2021/11/12 06:07:07;;;;;;;40.97;17.52;;;;;;;4.67;100.00;98557.03;4944720;29;20034;-77
2021/11/12 06:09:33;;;;;;;43.63;17.52;;;;;;;4.67;100.00;98566.00;4945261;29;20028;-78
2021/11/12 06:11:58;;;;;;;39.03;17.80;;;;;;;4.64;100.00;98557.53;4945064;28;20047;-76
2021/11/12 06:14:25;;;;;;;42.25;17.30;;;;;;;4.71;100.00;98558.19;4945928;29;20114;-77
2021/11/12 06:16:52;;;;;;;42.97;17.20;;;;;;;4.63;100.00;98550.47;4947951;28;20110;-80
2021/11/12 06:19:18;;;;;;;41.65;18.15;;;;;;;4.61;100.00;98558.00;4957130;29;20031;-80
2021/11/12 06:21:45;;;;;;;46.85;18.20;;;;;;;4.53;100.00;98569.25;4960060;29;20114;-80
2021/11/12 06:24:11;;;;;;;43.50;18.42;;;;;;;4.56;100.00;98564.16;4942819;29;20035;-78
2021/11/12 06:26:38;;;;;;;44.13;17.25;;;;;;;4.60;100.00;98564.50;4941908;29;20138;-79
2021/11/12 06:29:04;;;;;;;35.55;15.40;;;;;;;4.58;100.00;98561.19;4958252;29;20064;-78
2021/11/12 06:31:30;;;;;;;39.03;16.13;;;;;;;4.68;100.00;98562.22;4940589;29;20120;-78
2021/11/12 06:33:56;;;;;;;42.10;15.68;;;;;;;4.70;100.00;98561.97;4937247;29;20091;-78
2021/11/12 06:36:23;;;;;;;40.30;16.77;;;;;;;4.69;100.00;98549.50;4949166;29;20063;-77
2021/11/12 06:38:50;;;;;;;40.53;16.88;;;;;;;4.65;100.00;98548.34;4938963;29;20023;-79
2021/11/12 06:41:24;;;;;;;45.42;18.70;;;;;;;4.77;100.00;98546.38;4950186;29;20058;-80
2021/11/12 06:44:21;;;;;;;37.80;16.60;;;;;;;4.86;100.00;98553.88;4944128;29;20046;-79
2021/11/12 06:49:49;;;;;;;40.35;18.15;;;;;;;5.00;100.00;98559.81;4960714;29;20094;-79
2021/11/12 06:52:16;;;;;;;42.50;17.98;;;;;;;5.05;100.00;98565.31;4961697;29;20027;-80
2021/11/12 06:54:42;;;;;;;40.42;19.00;;;;;;;5.03;100.00;98563.94;4948997;29;20055;-79
2021/11/12 06:57:08;;;;;;;44.00;19.70;;;;;;;5.07;100.00;98549.66;4944729;29;20020;-79
2021/11/12 06:59:33;;;;;;;39.97;18.48;;;;;;;5.06;100.00;98553.44;4948048;29;20023;-79
2021/11/12 07:01:59;;;;;;;41.75;18.85;;;;;;;5.16;100.00;98559.03;4941164;29;20038;-78
2021/11/12 07:04:24;;;;;;;42.80;18.15;;;;;;;5.16;100.00;98553.59;4953096;29;20447;-75
2021/11/12 07:06:50;;;;;;;39.53;17.52;;;;;;;5.31;100.00;98558.44;4945758;29;20523;-77
2021/11/12 07:09:15;;;;;;;38.42;17.00;;;;;;;5.29;100.00;98564.09;4951610;29;20027;-76
2021/11/12 07:11:41;;;;;;;39.20;16.70;;;;;;;5.34;100.00;98561.50;4952875;29;20016;-77
2021/11/12 07:14:09;;;;;;;40.13;16.35;;;;;;;5.38;100.00;98562.66;4939644;29;20023;-77
2021/11/12 07:16:34;;;;;;;36.05;16.75;;;;;;;5.31;100.00;98567.41;4940644;29;20031;-78
2021/11/12 07:19:01;;;;;;;42.05;17.25;;;;;;;5.29;100.00;98564.09;4932921;29;20007;-79
2021/11/12 07:21:28;;;;;;;37.60;16.75;;;;;;;5.31;100.00;98567.41;4946812;29;20074;-78
2021/11/12 07:23:55;;;;;;;35.85;15.55;;;;;;;5.31;100.00;98564.69;4948998;29;20033;-78
2021/11/12 07:26:21;;;;;;;37.17;15.73;;;;;;;5.38;100.00;98557.22;4956833;28;20028;-75
2021/11/12 07:28:48;;;;;;;39.47;17.27;;;;;;;5.24;100.00;98555.91;4956109;29;20031;-80
2021/11/12 07:31:19;;;;;;;29.63;15.38;;;;;;;5.24;100.00;98553.19;4952601;28;20055;-80
2021/11/12 07:33:48;;;;;;;39.10;17.48;;;;;;;5.35;100.00;98562.31;4960948;29;20038;-79
2021/11/12 07:36:35;;;;;;;41.42;17.48;;;;;;;5.41;100.00;98566.75;4954984;29;20020;-81
2021/11/12 07:39:05;;;;;;;41.30;16.05;;;;;;;5.47;100.00;98563.06;4955920;29;20020;-80
2021/11/12 07:49:01;;;;;;;35.10;15.13;;;;;;;5.60;100.00;98553.75;4974208;28;20107;-78
2021/11/12 07:51:27;;;;;;;27.13;13.82;;;;;;;5.67;100.00;98565.25;4965611;29;20015;-78
2021/11/12 07:53:52;;;;;;;30.85;13.98;;;;;;;5.69;100.00;98563.13;4959535;29;20023;-79
2021/11/12 07:56:18;;;;;;;30.13;14.32;;;;;;;5.68;100.00;98561.47;4949314;29;20032;-78
2021/11/12 07:58:45;;;;;;;31.52;14.55;;;;;;;5.82;100.00;98558.16;4941881;29;20388;-76
2021/11/12 08:01:10;;;;;;;29.05;14.07;;;;;;;5.90;100.00;98555.03;4939406;29;20508;-74
2021/11/12 08:03:36;;;;;;;33.47;13.77;;;;;;;5.97;100.00;98557.56;4945327;29;20027;-72
2021/11/12 08:06:04;;;;;;;29.15;13.80;;;;;;;5.97;100.00;98554.03;4945313;29;20012;-72
2021/11/12 08:08:34;;;;;;;30.92;14.95;;;;;;;5.96;100.00;98553.22;4943061;29;20499;-72
2021/11/12 08:11:17;;;;;;;31.80;15.73;;;;;;;5.95;100.00;98554.31;4942441;29;20019;-73
2021/11/12 08:14:07;;;;;;;27.15;13.63;;;;;;;5.91;100.00;98555.88;4925708;29;20024;-73
2021/11/12 08:19:18;;;;;;;29.80;13.65;;;;;;;5.81;100.00;98561.13;4940971;29;20485;-71
2021/11/12 08:24:40;;;;;;;30.13;13.65;;;;;;;5.87;100.00;98547.41;4944923;29;20819;-76
2021/11/12 08:38:03;;;;;;;29.65;13.90;;;;;;;5.99;100.00;98547.28;4977502;28;20047;-77
2021/11/12 08:43:09;;;;;;;30.63;14.15;;;;;;;6.14;100.00;98554.81;4975953;28;20424;-72
2021/11/12 08:45:41;;;;;;;31.17;14.68;;;;;;;6.09;100.00;98542.00;4958486;28;20020;-77
2021/11/12 08:48:14;;;;;;;31.95;14.65;;;;;;;6.19;100.00;98544.84;4942837;29;20093;-76
2021/11/12 08:50:40;;;;;;;31.00;14.45;;;;;;;6.29;100.00;98552.28;4946967;28;20014;-73
2021/11/12 08:53:07;;;;;;;29.73;13.90;;;;;;;6.36;100.00;98545.56;4964125;28;20012;-72
2021/11/12 08:55:35;;;;;;;31.98;13.80;;;;;;;6.38;100.00;98554.31;4962970;28;20026;-72
2021/11/12 08:58:02;;;;;;;30.58;13.32;;;;;;;6.40;100.00;98554.03;4962929;28;20047;-77
2021/11/12 09:00:28;;;;;;;29.40;12.43;;;;;;;6.44;100.00;98547.88;4958970;28;20042;-81
2021/11/12 09:02:56;;;;;;;23.85;12.85;;;;;;;6.60;100.00;98551.56;4960555;28;20018;-74
2021/11/12 09:05:24;;;;;;;28.83;13.23;;;;;;;6.68;100.00;98550.28;4961532;29;20036;-77
2021/11/12 09:07:51;;;;;;;27.02;12.10;;;;;;;6.54;100.00;98549.88;4961490;29;20048;-76
2021/11/12 09:10:18;;;;;;;28.52;13.05;;;;;;;6.50;100.00;98554.16;4967863;28;20031;-79
2021/11/12 09:12:47;;;;;;;32.83;15.45;;;;;;;6.33;100.00;98543.38;4954976;29;20051;-79
2021/11/12 09:15:21;;;;;;;30.88;15.00;;;;;;;6.13;100.00;98551.28;4964948;29;20031;-74
2021/11/12 09:17:47;;;;;;;29.00;13.38;;;;;;;6.12;100.00;98543.38;4944143;28;20131;-72
2021/11/12 09:20:14;;;;;;;34.85;14.45;;;;;;;6.10;100.00;98540.09;4957391;28;20032;-80
2021/11/12 09:22:40;;;;;;;33.78;15.40;;;;;;;6.10;100.00;98538.22;4969075;28;20083;-79
2021/11/12 09:25:07;;;;;;;34.78;16.98;;;;;;;6.05;100.00;98540.84;4944507;29;20012;-79
2021/11/12 09:27:33;;;;;;;32.72;15.73;;;;;;;6.18;100.00;98542.34;4976302;28;20023;-79
2021/11/12 09:29:59;;;;;;;30.58;14.98;;;;;;;6.12;100.00;98540.66;4963844;29;20091;-80
2021/11/12 09:32:24;;;;;;;31.17;15.25;;;;;;;6.10;100.00;98542.81;4981690;28;20068;-74
2021/11/12 09:34:50;;;;;;;36.00;15.68;;;;;;;6.28;100.00;98543.31;4981618;28;20043;-74
2021/11/12 09:37:21;;;;;;;28.50;15.13;;;;;;;6.28;100.00;98546.03;4953155;29;20039;-78
2021/11/12 09:39:57;;;;;;;29.95;14.88;;;;;;;6.30;100.00;98535.72;4962861;28;20031;-73
2021/11/12 09:42:26;;;;;;;33.30;15.05;;;;;;;6.24;100.00;98539.47;4952006;28;20040;-79
2021/11/12 09:44:53;;;;;;;30.17;15.88;;;;;;;6.19;100.00;98541.28;4956700;29;20015;-78
2021/11/12 09:47:36;;;;;;;28.98;15.73;;;;;;;6.12;100.00;98529.78;4944852;28;20011;-72
2021/11/12 09:50:07;;;;;;;40.78;17.08;;;;;;;6.03;100.00;98537.56;4946145;29;20047;-73
2021/11/12 09:52:33;;;;;;;34.95;16.48;;;;;;;6.03;100.00;98534.84;4962196;28;20038;-72
2021/11/12 09:54:59;;;;;;;33.05;14.43;;;;;;;5.99;100.00;98530.97;4957579;28;20031;-76
2021/11/12 09:57:25;;;;;;;36.58;14.65;;;;;;;5.95;100.00;98532.59;4975345;28;20019;-73
2021/11/12 09:59:56;;;;;;;30.63;15.38;;;;;;;5.99;100.00;98520.13;4981300;28;20007;-76
2021/11/12 10:02:21;;;;;;;29.42;14.57;;;;;;;6.19;100.00;98525.81;4969623;29;20759;-79
2021/11/12 10:04:48;;;;;;;30.27;14.73;;;;;;;6.23;100.00;98516.09;4946792;29;20020;-80
2021/11/12 10:07:15;;;;;;;33.22;16.58;;;;;;;6.31;100.00;98517.53;4951688;29;20011;-79
2021/11/12 10:09:48;;;;;;;34.30;15.93;;;;;;;6.36;100.00;98521.13;4976598;29;20012;-80
2021/11/12 10:12:14;;;;;;;36.83;15.55;;;;;;;6.28;100.00;98509.91;4966809;29;20016;-77
2021/11/12 10:14:51;;;;;;;35.28;15.93;;;;;;;6.27;100.00;98500.09;4969510;29;20022;-77
2021/11/12 10:17:20;;;;;;;35.80;16.75;;;;;;;6.29;100.00;98501.50;4945293;29;20036;-79
2021/11/12 10:19:48;;;;;;;37.28;17.38;;;;;;;6.31;100.00;98496.63;4961105;28;20035;-79
2021/11/12 10:22:22;;;;;;;38.97;16.80;;;;;;;6.40;100.00;98497.00;4952184;29;20048;-79
2021/11/12 10:24:49;;;;;;;37.22;17.17;;;;;;;6.40;100.00;98488.84;4972307;28;20030;-78
2021/11/12 10:27:21;;;;;;;38.17;17.95;;;;;;;6.37;100.00;98484.75;4979720;28;20022;-80
2021/11/12 10:29:50;;;;;;;33.55;17.08;;;;;;;6.45;100.00;98487.00;4973914;28;20026;-78
2021/11/12 10:32:19;;;;;;;37.70;18.25;;;;;;;6.51;100.00;98487.06;4980287;28;20111;-72
2021/11/12 10:34:46;;;;;;;41.97;18.50;;;;;;;6.51;100.00;98489.78;4980531;28;20031;-81
2021/11/12 10:37:21;;;;;;;37.88;18.45;;;;;;;6.50;100.00;98482.69;4980018;28;20038;-82
2021/11/12 10:39:51;;;;;;;43.30;21.10;;;;;;;6.52;100.00;98481.34;4978859;29;20027;-75
2021/11/12 10:42:25;;;;;;;36.78;18.08;;;;;;;6.51;100.00;98478.91;4979748;28;20026;-73
2021/11/12 10:44:53;;;;;;;35.05;18.20;;;;;;;6.58;100.00;98479.53;4979442;28;20011;-74
2021/11/12 10:47:23;;;;;;;33.88;17.15;;;;;;;6.56;100.00;98481.66;4979505;28;20066;-76
2021/11/12 10:49:51;;;;;;;36.10;17.27;;;;;;;6.46;100.00;98468.78;4969851;28;20496;-79
2021/11/12 10:52:22;;;;;;;37.67;17.42;;;;;;;6.47;100.00;98462.31;4964314;29;20028;-77
2021/11/12 10:58:12;;;;;;;36.28;18.45;;;;;;;6.38;100.00;98472.81;4962494;29;20027;-75
2021/11/12 11:00:46;;;;;;;36.95;17.65;;;;;;;6.39;100.00;98469.00;4960169;29;20019;-74
2021/11/12 11:03:15;;;;;;;35.03;18.00;;;;;;;6.47;100.00;98462.31;4961262;29;20010;-74
2021/11/12 11:05:40;;;;;;;37.78;17.38;;;;;;;6.43;100.00;98467.41;4960796;29;20028;-74
2021/11/12 11:08:08;;;;;;;41.38;18.33;;;;;;;6.36;100.00;98461.34;4959865;29;20036;-75
2021/11/12 11:10:37;;;;;;;38.20;18.65;;;;;;;6.42;100.00;98459.53;4961208;29;20089;-74
2021/11/12 11:13:24;;;;;;;40.50;20.13;;;;;;;6.28;100.00;98461.00;4960034;29;20028;-75
2021/11/12 11:15:52;;;;;;;46.83;22.58;;;;;;;6.25;100.00;98446.03;4960939;29;20036;-74
2021/11/12 11:18:25;;;;;;;45.25;22.13;;;;;;;6.14;100.00;98451.63;4961013;29;20019;-74
2021/11/12 11:21:08;;;;;;;42.83;22.33;;;;;;;6.25;100.00;98451.47;4960840;28;20028;-73
2021/11/12 11:23:41;;;;;;;54.78;24.05;;;;;;;6.31;100.00;98444.19;4960949;28;20042;-73
2021/11/12 11:26:07;;;;;;;47.03;23.85;;;;;;;6.33;100.00;98445.56;4944239;28;20031;-73
2021/11/12 11:28:36;;;;;;;49.45;24.00;;;;;;;6.31;100.00;98447.75;4960174;28;20015;-71
2021/11/12 11:31:05;;;;;;;47.33;24.33;;;;;;;6.34;100.00;98446.41;4960594;28;20027;-72
2021/11/12 11:33:31;;;;;;;48.85;25.13;;;;;;;6.21;100.00;98436.75;4959009;28;20071;-77
2021/11/12 11:35:57;;;;;;;49.47;25.80;;;;;;;6.18;100.00;98434.56;4959905;29;20023;-77
2021/11/12 11:38:29;;;;;;;48.95;24.48;;;;;;;6.14;100.00;98429.91;4959828;29;20015;-79
2021/11/12 11:40:55;;;;;;;50.00;24.42;;;;;;;6.13;100.00;98422.81;4957829;28;20024;-78
2021/11/12 11:43:24;;;;;;;49.20;25.58;;;;;;;6.13;100.00;98429.06;4957584;28;20090;-76
2021/11/12 11:45:50;;;;;;;47.20;24.48;;;;;;;6.20;100.00;98424.25;4954718;28;20029;-76
2021/11/12 11:48:17;;;;;;;45.90;23.45;;;;;;;6.21;100.00;98430.50;4938040;29;20043;-77
2021/11/12 11:50:59;;;;;;;52.60;25.38;;;;;;;6.29;100.00;98422.75;4934667;29;20178;-76
2021/11/12 11:53:29;;;;;;;50.33;25.73;;;;;;;6.31;100.00;98425.19;4953516;28;20104;-75
2021/11/12 11:56:11;;;;;;;42.17;24.08;;;;;;;6.28;100.00;98420.25;4941591;29;20016;-77
2021/11/12 11:59:00;;;;;;;51.65;24.42;;;;;;;6.29;100.00;98417.31;4947261;29;20062;-75
2021/11/12 12:01:34;;;;;;;55.20;27.45;;;;;;;6.10;100.00;98413.28;4977445;28;20039;-81
2021/11/12 12:04:32;;;;;;;48.20;24.80;;;;;;;6.25;100.00;98413.44;4977265;28;20060;-73
2021/11/12 12:07:00;;;;;;;47.20;24.27;;;;;;;6.46;100.00;98419.88;4971041;28;20059;-81
2021/11/12 12:09:47;;;;;;;49.15;23.88;;;;;;;6.54;100.00;98403.13;4960936;29;20016;-74
2021/11/12 12:12:34;;;;;;;51.83;23.70;;;;;;;6.45;100.00;98405.47;4959941;29;20042;-78
2021/11/12 12:15:05;;;;;;;48.70;24.23;;;;;;;6.32;100.00;98402.38;4948603;29;20124;-78
2021/11/12 12:17:37;;;;;;;46.30;23.10;;;;;;;6.42;100.00;98413.34;4954866;28;20015;-74
2021/11/12 13:26:01;;;;;;;51.85;25.48;;;;;;;6.41;100.00;98354.66;4979795;28;20073;-79
2021/11/12 13:28:34;;;;;;;48.90;26.52;;;;;;;6.41;100.00;98344.59;4959062;28;20024;-77
2021/11/12 13:31:08;;;;;;;53.58;29.63;;;;;;;6.27;100.00;98353.41;4951659;29;20047;-77
2021/11/12 13:33:37;;;;;;;46.90;27.73;;;;;;;6.19;100.00;98346.59;4972558;28;20011;-75
2021/11/12 13:36:08;;;;;;;51.70;29.02;;;;;;;6.29;100.00;98348.56;4963607;29;20083;-77
2021/11/12 13:38:44;;;;;;;57.08;29.58;;;;;;;6.26;100.00;98349.91;4962645;28;20056;-81
2021/11/12 13:41:13;;;;;;;63.45;32.83;;;;;;;6.08;100.00;98349.44;4956671;28;20023;-76
2021/11/12 13:43:41;;;;;;;51.70;28.77;;;;;;;6.14;100.00;98354.66;4965876;28;20023;-78
2021/11/12 13:46:07;;;;;;;51.90;29.08;;;;;;;6.11;100.00;98352.47;4976345;28;20031;-75
2021/11/12 13:48:54;;;;;;;53.47;27.77;;;;;;;6.07;100.00;98345.91;4965419;28;20095;-73
2021/11/12 13:51:28;;;;;;;49.63;28.45;;;;;;;6.16;100.00;98347.09;4971078;28;20087;-74
2021/11/12 14:06:59;;;;;;;45.92;25.33;;;;;;;5.95;100.00;98312.69;5426112;23;20045;-74
2021/11/12 14:09:33;;;;;;;46.28;23.52;;;;;;;5.80;100.00;98305.16;4986269;28;20043;-76
2021/11/12 14:12:12;;;;;;;53.13;25.67;;;;;;;6.12;100.00;98339.72;4988915;28;20019;-74
2021/11/12 14:14:45;;;;;;;54.08;26.33;;;;;;;6.24;100.00;98340.34;4997271;28;20370;-73
2021/11/12 14:17:23;;;;;;;46.45;24.88;;;;;;;6.30;100.00;98348.28;4964638;28;20012;-79
2021/11/12 14:19:58;;;;;;;41.63;22.77;;;;;;;6.27;100.00;98346.09;4985100;28;20018;-74
2021/11/12 14:28:46;;;;;;;48.97;26.75;;;;;;;6.15;100.00;98344.63;4982432;28;20030;-73
2021/11/12 14:31:47;;;;;;;47.45;26.25;;;;;;;6.17;100.00;98334.34;4981293;28;20104;-74
2021/11/12 14:36:58;;;;;;;55.92;27.60;;;;;;;6.18;100.00;98331.34;4981047;28;20020;-74
2021/11/12 14:45:17;;;;;;;59.95;29.40;;;;;;;6.02;100.00;98332.28;4980867;28;20042;-74
2021/11/12 14:50:48;;;;;;;52.63;28.33;;;;;;;6.17;100.00;98315.34;4980893;28;20035;-72
2021/11/12 14:55:53;;;;;;;53.90;29.13;;;;;;;6.19;100.00;98303.13;4980998;28;20087;-74
2021/11/12 14:58:20;;;;;;;52.75;27.88;;;;;;;6.19;100.00;98303.13;4980671;28;20031;-73
2021/11/12 15:00:49;;;;;;;63.97;31.85;;;;;;;6.21;100.00;98300.97;4980639;28;20011;-75
2021/11/12 15:03:14;;;;;;;60.33;32.45;;;;;;;6.16;100.00;98300.94;4963911;29;20011;-73
2021/11/12 15:05:40;;;;;;;72.53;34.53;;;;;;;6.21;100.00;98292.81;4963664;28;20038;-73
2021/11/12 15:08:17;;;;;;;69.18;32.20;;;;;;;6.21;100.00;98284.66;4980460;28;20043;-76
2021/11/12 15:10:43;;;;;;;62.17;32.60;;;;;;;6.22;100.00;98286.31;4999700;28;20026;-75
2021/11/12 15:13:09;;;;;;;88.13;47.75;;;;;;;6.22;100.00;98293.63;4980261;28;20045;-73
2021/11/12 15:15:34;;;;;;;58.60;31.48;;;;;;;6.23;100.00;98293.38;4983351;28;20058;-77
2021/11/12 15:18:04;;;;;;;90.22;47.33;;;;;;;6.24;100.00;98289.56;4982762;28;20026;-73
2021/11/12 15:20:30;;;;;;;63.50;33.17;;;;;;;6.28;100.00;98287.16;4999586;28;20022;-77
2021/11/12 15:27:55;;;;;;;53.33;28.58;;;;;;;6.27;100.00;98289.06;4999544;28;20042;-74
2021/11/12 15:30:30;;;;;;;59.92;30.38;;;;;;;6.27;100.00;98282.81;4982843;28;20083;-73
2021/11/12 15:33:00;;;;;;;61.45;29.23;;;;;;;6.26;100.00;98287.44;4999544;28;20014;-73
2021/11/12 15:35:29;;;;;;;55.55;29.25;;;;;;;6.20;100.00;98288.44;4999132;28;20015;-73
2021/11/12 15:38:09;;;;;;;56.13;30.80;;;;;;;6.22;100.00;98286.31;4999305;28;20022;-74
2021/11/12 15:40:40;;;;;;;49.97;25.30;;;;;;;6.18;100.00;98287.91;4999383;28;20961;-73
2021/11/12 15:48:12;;;;;;;49.15;26.42;;;;;;;6.05;100.00;98296.47;4999255;28;20007;-73
2021/11/12 16:25:28;;;;;;;55.05;29.17;;;;;;;5.92;100.00;98315.88;4997250;28;20038;-79
2021/11/12 16:28:01;;;;;;;48.63;27.90;;;;;;;5.96;100.00;98311.59;4987211;28;20026;-77
2021/11/12 16:30:35;;;;;;;51.28;27.48;;;;;;;6.00;100.00;98310.00;4968788;28;20019;-79
2021/11/12 16:33:04;;;;;;;44.90;24.58;;;;;;;6.01;100.00;98311.66;4970613;28;20023;-76
2021/11/12 16:35:33;;;;;;;45.97;25.83;;;;;;;6.00;100.00;98311.91;4981985;28;20030;-79
2021/11/12 16:41:10;;;;;;;47.22;26.08;;;;;;;6.02;100.00;98317.88;4974668;28;20030;-78
2021/11/12 17:07:04;;;;;;;53.72;27.90;;;;;;;5.99;100.00;98313.78;4986984;28;20046;-80
2021/11/12 17:47:05;;;;;;;49.55;24.50;;;;;;;5.72;100.00;98330.06;4981791;28;20046;-80
2021/11/12 18:02:49;;;;;;;46.53;23.48;;;;;;;5.90;100.00;98331.63;4970004;28;20119;-78
2021/11/12 18:13:32;;;;;;;46.40;23.50;;;;;;;5.86;100.00;98316.91;4965900;29;20039;-79
2021/11/12 21:48:57;;;;;;;53.42;25.25;;;;;;;6.04;100.00;98261.44;4982049;28;20086;-72
2021/11/12 21:51:28;;;;;;;51.55;24.55;;;;;;;6.11;100.00;98260.13;4983854;28;20027;-76
2021/11/12 21:53:59;;;;;;;58.25;25.08;;;;;;;6.09;100.00;98248.72;5001313;28;20026;-72
2021/11/12 21:56:28;;;;;;;67.07;26.92;;;;;;;6.07;100.00;98250.06;4997058;28;21165;-73
2021/11/12 21:58:54;;;;;;;50.13;24.08;;;;;;;6.16;100.00;98249.31;4985083;28;20051;-77
2021/11/12 22:01:21;;;;;;;65.03;27.98;;;;;;;6.12;100.00;98247.38;4991339;28;20010;-76
2021/11/12 22:03:48;;;;;;;52.28;24.98;;;;;;;6.00;100.00;98234.00;4983824;28;20050;-75
2021/11/12 22:06:14;;;;;;;59.45;25.33;;;;;;;5.90;100.00;98239.31;4986461;28;20034;-78
2021/11/12 22:08:43;;;;;;;60.63;27.23;;;;;;;5.79;100.00;98232.97;4985923;28;20037;-77
2021/11/12 22:11:09;;;;;;;62.15;27.75;;;;;;;5.89;100.00;98234.97;4996730;28;20086;-82
2021/11/12 22:13:37;;;;;;;59.80;26.00;;;;;;;5.94;100.00;98237.75;4978217;28;20047;-76
2021/11/12 22:16:04;;;;;;;63.22;25.92;;;;;;;5.98;100.00;98232.63;4985905;28;20012;-73
2021/11/12 22:18:30;;;;;;;61.30;27.25;;;;;;;5.95;100.00;98231.25;4988310;28;20071;-80
2021/11/12 22:20:55;;;;;;;64.13;26.10;;;;;;;5.88;100.00;98239.59;4994216;28;20011;-75
2021/11/12 22:23:21;;;;;;;65.15;27.02;;;;;;;5.91;100.00;98235.53;4991701;28;20027;-81
2021/11/12 22:25:49;;;;;;;65.82;27.48;;;;;;;5.90;100.00;98233.91;4981667;28;20030;-74
2021/11/12 22:28:14;;;;;;;60.95;26.05;;;;;;;5.95;100.00;98241.28;4987902;28;20051;-77